Time;durP1;ratioP1;P1;durP2;ratioP2;P2;SDS_P1;SDS_P2;PMS_P1;PMS_P2;Temp;Humidity;BMP_temperature;BMP_pressure;BME280_temperature;BME280_humidity;BME280_pressure;Samples;Min_cycle;Max_cycle;Signal;HPM_P1;HPM_P2
2023/12/15 00:02:14;;;;;;;;;;;;;;;6.92;100.00;95036.50;5113099;28;956;-60
2023/12/15 00:04:40;;;;;;;;;;;;;;;7.01;100.00;95038.31;5113423;28;1008;-60
2023/12/15 00:07:06;;;;;;;;;;;;;;;7.05;100.00;95053.00;5113412;28;1051;-60
2023/12/15 00:09:32;;;;;;;;;;;;;;;6.92;100.00;95045.31;5113255;28;1008;-59
2023/12/15 00:11:58;;;;;;;;;;;;;;;6.80;100.00;95047.28;5113361;28;981;-59
2023/12/15 00:14:23;;;;;;;;;;;;;;;6.86;100.00;95045.88;5112757;28;2003;-60
2023/12/15 00:16:49;;;;;;;;;;;;;;;6.87;100.00;95054.69;5113242;28;972;-60
2023/12/15 00:19:15;;;;;;;;;;;;;;;6.88;100.00;95059.88;5113234;28;1047;-59
2023/12/15 00:21:41;;;;;;;;;;;;;;;6.86;100.00;95061.84;5113393;28;960;-59
2023/12/15 00:24:08;;;;;;;;;;;;;;;6.86;100.00;95061.00;5116664;28;1040;-59
2023/12/15 00:26:35;;;;;;;;;;;;;;;6.83;100.00;95068.28;5116879;28;965;-59
2023/12/15 00:29:02;;;;;;;;;;;;;;;6.78;100.00;95061.72;5116589;28;1020;-59
2023/12/15 00:31:28;;;;;;;;;;;;;;;6.85;100.00;95060.19;5116497;28;1067;-59
2023/12/15 00:33:54;;;;;;;;;;;;;;;6.83;100.00;95065.63;5116346;28;1902;-60
2023/12/15 00:36:20;;;;;;;;;;;;;;;6.79;100.00;95066.88;5116369;28;1111;-59
2023/12/15 00:38:46;;;;;;;;;;;;;;;6.83;100.00;95067.44;5116658;28;1161;-59
2023/12/15 00:41:12;;;;;;;;;;;;;;;6.83;100.00;95067.44;5116272;28;1080;-59
2023/12/15 00:43:38;;;;;;;;;;;;;;;6.74;100.00;95066.47;5116314;28;1080;-59
2023/12/15 00:46:04;;;;;;;;;;;;;;;6.53;100.00;95061.28;5116177;28;972;-59
2023/12/15 00:48:30;;;;;;;;;;;;;;;6.49;100.00;95059.03;5115197;28;965;-59
2023/12/15 00:50:56;;;;;;;;;;;;;;;6.57;100.00;95067.16;5116493;27;995;-59
2023/12/15 00:53:22;;;;;;;;;;;;;;;6.58;100.00;95068.81;5114799;28;1909;-59
2023/12/15 00:55:48;;;;;;;;;;;;;;;6.50;100.00;95066.03;5115965;28;1304;-59
2023/12/15 00:58:14;;;;;;;;;;;;;;;6.50;100.00;95071.34;5116004;28;1047;-59
2023/12/15 01:00:40;;;;;;;;;;;;;;;6.56;100.00;95068.94;5116216;28;1069;-59
2023/12/15 01:03:05;;;;;;;;;;;;;;;6.63;100.00;95067.41;5115958;28;988;-59
2023/12/15 01:05:31;;;;;;;;;;;;;;;6.57;100.00;95072.47;5116033;28;1008;-59
2023/12/15 01:07:57;;;;;;;;;;;;;;;6.71;100.00;95085.31;5115942;28;996;-59
2023/12/15 01:10:23;;;;;;;;;;;;;;;6.71;100.00;95080.00;5116003;28;968;-59
2023/12/15 01:12:49;;;;;;;;;;;;;;;6.68;100.00;95082.97;5115650;28;1237;-60
2023/12/15 01:15:15;;;;;;;;;;;;;;;6.81;100.00;95085.31;5115514;28;1913;-59
2023/12/15 01:17:41;;;;;;;;;;;;;;;6.70;100.00;95096.13;5115888;28;1040;-59
2023/12/15 01:20:10;;;;;;;;;;;;;;;6.77;100.00;95083.94;5114718;28;977;-59
2023/12/15 01:22:36;;;;;;;;;;;;;;;6.67;100.00;95081.28;5115850;28;964;-59
2023/12/15 01:25:02;;;;;;;;;;;;;;;6.59;100.00;95086.44;5115791;28;965;-59
2023/12/15 01:27:28;;;;;;;;;;;;;;;6.73;100.00;95085.19;5115604;28;1071;-59
2023/12/15 01:29:54;;;;;;;;;;;;;;;6.73;100.00;95080.72;5115631;28;963;-59
2023/12/15 01:32:20;;;;;;;;;;;;;;;6.81;100.00;95080.88;5115289;28;1027;-59
2023/12/15 01:34:46;;;;;;;;;;;;;;;6.74;100.00;95086.88;5115261;28;1998;-60
2023/12/15 01:37:12;;;;;;;;;;;;;;;6.68;100.00;95056.41;5115206;28;1028;-60
2023/12/15 01:39:37;;;;;;;;;;;;;;;6.71;100.00;95082.66;5115330;28;1050;-60
2023/12/15 01:42:03;;;;;;;;;;;;;;;6.62;100.00;95091.47;5115175;28;1028;-60
2023/12/15 01:44:29;;;;;;;;;;;;;;;6.47;100.00;95087.53;5114970;28;1048;-60
2023/12/15 01:46:55;;;;;;;;;;;;;;;6.46;100.00;95089.38;5115045;28;1098;-59
2023/12/15 01:49:21;;;;;;;;;;;;;;;6.51;100.00;95094.28;5114944;28;1105;-60
2023/12/15 01:51:47;;;;;;;;;;;;;;;6.43;100.00;95089.63;5115182;28;1089;-59
2023/12/15 01:54:13;;;;;;;;;;;;;;;6.47;100.00;95091.06;5114865;28;1988;-59
2023/12/15 01:56:39;;;;;;;;;;;;;;;6.64;100.00;95094.84;5114855;28;1083;-60
2023/12/15 01:59:05;;;;;;;;;;;;;;;6.67;100.00;95094.56;5114745;28;1013;-60
2023/12/15 02:01:31;;;;;;;;;;;;;;;6.78;100.00;95107.72;5114680;28;1052;-60
2023/12/15 02:03:57;;;;;;;;;;;;;;;6.81;100.00;95110.09;5114724;28;1091;-60
2023/12/15 02:06:23;;;;;;;;;;;;;;;6.77;100.00;95110.50;5114573;28;1087;-59
2023/12/15 02:08:49;;;;;;;;;;;;;;;6.64;100.00;95108.97;5114599;28;1083;-60
2023/12/15 02:11:15;;;;;;;;;;;;;;;6.50;100.00;95114.66;5113291;28;1024;-60
2023/12/15 02:13:41;;;;;;;;;;;;;;;6.48;100.00;95119.28;5114439;28;1918;-60
2023/12/15 02:16:07;;;;;;;;;;;;;;;6.44;100.00;95113.41;5114480;28;1044;-59
2023/12/15 02:18:33;;;;;;;;;;;;;;;6.31;100.00;95115.47;5114386;28;1032;-59
2023/12/15 02:20:59;;;;;;;;;;;;;;;6.36;100.00;95112.41;5114410;28;1555;-59
2023/12/15 02:23:25;;;;;;;;;;;;;;;6.52;100.00;95115.38;5114539;28;1015;-59
2023/12/15 02:25:51;;;;;;;;;;;;;;;6.63;100.00;95119.72;5114633;28;972;-60
2023/12/15 02:28:17;;;;;;;;;;;;;;;6.75;100.00;95126.56;5114379;28;976;-60
2023/12/15 02:30:43;;;;;;;;;;;;;;;6.79;100.00;95122.69;5114508;28;925;-60
2023/12/15 02:33:11;;;;;;;;;;;;;;;6.80;100.00;95126.19;5114482;28;932;-59
2023/12/15 02:35:37;;;;;;;;;;;;;;;6.82;100.00;95125.06;5114395;28;1897;-60
2023/12/15 02:38:08;;;;;;;;;;;;;;;6.69;100.00;95127.13;5114257;28;961;-59
2023/12/15 02:40:35;;;;;;;;;;;;;;;6.57;100.00;95134.41;5114262;28;953;-60
2023/12/15 02:43:01;;;;;;;;;;;;;;;6.67;100.00;95130.94;5114289;28;1027;-60
2023/12/15 02:45:27;;;;;;;;;;;;;;;6.62;100.00;95132.19;5113483;28;1071;-59
2023/12/15 02:47:53;;;;;;;;;;;;;;;6.55;100.00;95138.19;5114076;28;1066;-60
2023/12/15 02:50:19;;;;;;;;;;;;;;;6.53;100.00;95140.13;5113969;28;1055;-60
2023/12/15 02:52:45;;;;;;;;;;;;;;;6.54;100.00;95137.31;5114192;28;995;-60
2023/12/15 02:55:13;;;;;;;;;;;;;;;6.62;100.00;95140.16;5113624;28;1988;-60
2023/12/15 02:57:39;;;;;;;;;;;;;;;6.60;100.00;95143.91;5113724;28;1032;-59
2023/12/15 03:00:06;;;;;;;;;;;;;;;6.49;100.00;95144.00;5114066;28;972;-59
2023/12/15 03:02:32;;;;;;;;;;;;;;;6.52;100.00;95139.28;5113896;28;1054;-60
2023/12/15 03:04:58;;;;;;;;;;;;;;;6.52;100.00;95143.75;5113845;28;1130;-59
2023/12/15 03:07:24;;;;;;;;;;;;;;;6.61;100.00;95148.25;5113770;28;1004;-62
2023/12/15 03:09:50;;;;;;;;;;;;;;;6.58;100.00;95146.72;5113610;28;1032;-63
2023/12/15 03:12:16;;;;;;;;;;;;;;;6.60;100.00;95144.75;5113486;28;1024;-62
2023/12/15 03:14:42;;;;;;;;;;;;;;;6.70;100.00;95144.78;5113365;28;1886;-63
2023/12/15 03:17:08;;;;;;;;;;;;;;;6.77;100.00;95153.03;5113557;28;1040;-63
2023/12/15 03:19:34;;;;;;;;;;;;;;;6.61;100.00;95145.59;5113466;28;1062;-63
2023/12/15 03:22:00;;;;;;;;;;;;;;;6.43;100.00;95148.06;5113626;28;967;-63
2023/12/15 03:24:26;;;;;;;;;;;;;;;6.48;100.00;95151.16;5113498;28;959;-62
2023/12/15 03:26:51;;;;;;;;;;;;;;;6.55;100.00;95144.31;5112319;28;999;-63
2023/12/15 03:29:17;;;;;;;;;;;;;;;6.54;100.00;95149.78;5113699;28;1044;-63
2023/12/15 03:31:44;;;;;;;;;;;;;;;6.69;100.00;95147.56;5112250;28;1091;-62
2023/12/15 03:34:10;;;;;;;;;;;;;;;6.71;100.00;95159.72;5113312;28;1909;-62
2023/12/15 03:36:38;;;;;;;;;;;;;;;6.63;100.00;95162.25;5113538;28;1066;-63
2023/12/15 03:39:05;;;;;;;;;;;;;;;6.52;100.00;95165.00;5113468;28;964;-63
2023/12/15 03:41:32;;;;;;;;;;;;;;;6.49;100.00;95166.13;5113269;28;1032;-62
2023/12/15 03:43:58;;;;;;;;;;;;;;;6.36;100.00;95163.72;5113636;28;973;-62
2023/12/15 03:46:24;;;;;;;;;;;;;;;6.54;100.00;95168.38;5113459;28;973;-60
2023/12/15 03:48:50;;;;;;;;;;;;;;;6.61;100.00;95169.50;5113453;28;1062;-61
2023/12/15 03:51:16;;;;;;;;;;;;;;;6.44;100.00;95158.56;5113338;28;1032;-60
2023/12/15 03:53:42;;;;;;;;;;;;;;;6.45;100.00;95162.06;5113116;28;1914;-59
2023/12/15 03:56:09;;;;;;;;;;;;;;;6.38;100.00;95175.03;5114138;28;977;-60
2023/12/15 03:58:35;;;;;;;;;;;;;;;6.34;100.00;95173.63;5117514;28;972;-60
2023/12/15 04:01:01;;;;;;;;;;;;;;;6.29;100.00;95186.47;5117344;28;964;-61
2023/12/15 04:03:27;;;;;;;;;;;;;;;6.33;100.00;95185.22;5117365;28;1042;-60
2023/12/15 04:05:54;;;;;;;;;;;;;;;6.31;100.00;95188.97;5117180;28;1048;-62
2023/12/15 04:08:20;;;;;;;;;;;;;;;6.29;100.00;95183.81;5116957;28;1059;-62
2023/12/15 04:10:45;;;;;;;;;;;;;;;6.40;100.00;95190.84;5117225;28;953;-63
2023/12/15 04:13:11;;;;;;;;;;;;;;;6.55;100.00;95193.97;5116740;28;1091;-62
2023/12/15 04:15:38;;;;;;;;;;;;;;;6.67;100.00;95189.38;5116837;28;1988;-62
2023/12/15 04:18:04;;;;;;;;;;;;;;;6.75;100.00;95194.84;5117218;28;1005;-62
2023/12/15 04:20:30;;;;;;;;;;;;;;;6.74;100.00;95199.31;5116883;28;949;-62
2023/12/15 04:22:57;;;;;;;;;;;;;;;6.80;100.00;95206.75;5116843;28;984;-62
2023/12/15 04:25:23;;;;;;;;;;;;;;;6.81;100.00;95210.22;5116594;28;1048;-62
2023/12/15 04:27:48;;;;;;;;;;;;;;;6.82;100.00;95209.28;5116603;28;1045;-62
2023/12/15 04:30:14;;;;;;;;;;;;;;;6.84;100.00;95217.94;5116465;28;1088;-62
2023/12/15 04:32:40;;;;;;;;;;;;;;;6.83;100.00;95210.97;5116566;28;1031;-62
2023/12/15 04:35:07;;;;;;;;;;;;;;;6.82;100.00;95203.94;5116396;28;1906;-62
2023/12/15 04:37:33;;;;;;;;;;;;;;;6.83;100.00;95208.31;5116391;28;1087;-62
2023/12/15 04:39:59;;;;;;;;;;;;;;;6.83;100.00;95211.78;5116374;28;1100;-61
2023/12/15 04:42:28;;;;;;;;;;;;;;;6.84;100.00;95204.66;5116285;28;1080;-62
2023/12/15 04:44:53;;;;;;;;;;;;;;;6.80;100.00;95209.41;5116291;28;1040;-60
2023/12/15 04:47:19;;;;;;;;;;;;;;;6.81;100.00;95204.91;5116189;28;1115;-61
2023/12/15 04:49:45;;;;;;;;;;;;;;;6.72;100.00;95205.75;5116150;28;1036;-61
2023/12/15 04:52:11;;;;;;;;;;;;;;;6.78;100.00;95214.00;5116031;28;1041;-60
2023/12/15 04:54:37;;;;;;;;;;;;;;;6.86;100.00;95218.63;5114699;28;1906;-59
2023/12/15 04:57:03;;;;;;;;;;;;;;;6.95;100.00;95224.97;5116072;28;1044;-59
2023/12/15 04:59:30;;;;;;;;;;;;;;;6.87;100.00;95230.09;5116142;28;1019;-61
2023/12/15 05:01:56;;;;;;;;;;;;;;;6.81;100.00;95240.31;5116125;28;1028;-60
2023/12/15 05:04:22;;;;;;;;;;;;;;;6.72;100.00;95232.34;5116163;28;969;-60
2023/12/15 05:06:48;;;;;;;;;;;;;;;6.45;100.00;95239.09;5115885;28;1016;-60
2023/12/15 05:09:14;;;;;;;;;;;;;;;6.57;100.00;95247.81;5115806;28;1054;-60
2023/12/15 05:11:40;;;;;;;;;;;;;;;6.68;100.00;95241.53;5116131;28;1058;-60
2023/12/15 05:14:06;;;;;;;;;;;;;;;6.71;100.00;95244.75;5115776;28;1977;-59
2023/12/15 05:16:32;;;;;;;;;;;;;;;6.75;100.00;95253.31;5115861;28;964;-59
2023/12/15 05:18:58;;;;;;;;;;;;;;;6.69;100.00;95245.88;5114625;28;1039;-60
2023/12/15 05:21:24;;;;;;;;;;;;;;;6.59;100.00;95243.19;5115547;28;1087;-62
2023/12/15 05:23:50;;;;;;;;;;;;;;;6.49;100.00;95240.50;5115487;28;1083;-63
2023/12/15 05:26:16;;;;;;;;;;;;;;;6.36;100.00;95239.88;5115742;28;1050;-63
2023/12/15 05:28:44;;;;;;;;;;;;;;;6.40;100.00;95242.13;5115633;28;1042;-61
2023/12/15 05:31:10;;;;;;;;;;;;;;;6.56;100.00;95240.78;5115749;28;1228;-60
2023/12/15 05:33:36;;;;;;;;;;;;;;;6.57;100.00;95250.47;5115573;28;1991;-60
2023/12/15 05:36:02;;;;;;;;;;;;;;;6.58;100.00;95255.66;5115574;28;963;-60
2023/12/15 05:38:28;;;;;;;;;;;;;;;6.60;100.00;95244.84;5115200;28;1047;-58
2023/12/15 05:40:54;;;;;;;;;;;;;;;6.72;100.00;95248.28;5115170;28;967;-58
2023/12/15 05:43:20;;;;;;;;;;;;;;;6.69;100.00;95246.72;5115234;28;1039;-59
2023/12/15 05:45:46;;;;;;;;;;;;;;;6.69;100.00;95245.88;5115258;28;968;-59
2023/12/15 05:48:12;;;;;;;;;;;;;;;6.73;100.00;95253.44;5115226;28;975;-57
2023/12/15 05:50:38;;;;;;;;;;;;;;;6.77;100.00;95254.88;5115117;28;995;-60
2023/12/15 05:53:04;;;;;;;;;;;;;;;6.80;100.00;95259.06;5114909;28;1075;-58
2023/12/15 05:55:30;;;;;;;;;;;;;;;6.66;100.00;95257.63;5114607;28;1987;-59
2023/12/15 05:57:56;;;;;;;;;;;;;;;6.62;100.00;95259.72;5115137;28;964;-60
2023/12/15 06:00:22;;;;;;;;;;;;;;;6.71;100.00;95265.19;5114719;28;1024;-59
2023/12/15 06:02:48;;;;;;;;;;;;;;;6.38;100.00;95264.50;5114711;28;1076;-60
2023/12/15 06:05:14;;;;;;;;;;;;;;;6.17;100.00;95261.88;5114588;28;1100;-60
2023/12/15 06:07:40;;;;;;;;;;;;;;;6.07;100.00;95259.16;5115046;27;960;-60
2023/12/15 06:10:06;;;;;;;;;;;;;;;6.14;100.00;95267.44;5114694;28;973;-60
2023/12/15 06:12:32;;;;;;;;;;;;;;;6.27;100.00;95283.16;5114804;28;972;-59
2023/12/15 06:14:58;;;;;;;;;;;;;;;6.31;100.00;95288.06;5114225;28;1989;-58
2023/12/15 06:17:24;;;;;;;;;;;;;;;6.38;100.00;95291.06;5114486;28;1027;-59
2023/12/15 06:19:50;;;;;;;;;;;;;;;6.54;100.00;95290.56;5113797;27;1110;-60
2023/12/15 06:22:16;;;;;;;;;;;;;;;6.55;100.00;95286.94;5113160;28;1024;-59
2023/12/15 06:24:42;;;;;;;;;;;;;;;6.60;100.00;95288.22;5114406;28;964;-60
2023/12/15 06:27:08;;;;;;;;;;;;;;;6.49;100.00;95303.38;5113487;28;1060;-60
2023/12/15 06:29:34;;;;;;;;;;;;;;;6.54;100.00;95309.16;5114579;28;1148;-60
2023/12/15 06:32:00;;;;;;;;;;;;;;;6.62;100.00;95298.69;5113099;28;1028;-59
2023/12/15 06:34:26;;;;;;;;;;;;;;;6.73;100.00;95297.78;5114209;28;1914;-60
2023/12/15 06:36:52;;;;;;;;;;;;;;;6.87;100.00;95299.22;5113266;28;1032;-60
2023/12/15 06:39:18;;;;;;;;;;;;;;;7.02;100.00;95312.00;5114324;28;1027;-60
2023/12/15 06:41:44;;;;;;;;;;;;;;;6.95;100.00;95312.69;5114111;28;1068;-59
2023/12/15 06:44:10;;;;;;;;;;;;;;;7.13;100.00;95324.38;5114333;28;1063;-59
2023/12/15 06:46:39;;;;;;;;;;;;;;;7.19;100.00;95322.94;5114198;28;1058;-59
2023/12/15 06:49:05;;;;;;;;;;;;;;;7.27;100.00;95309.00;5114167;28;988;-60
2023/12/15 06:51:30;;;;;;;;;;;;;;;7.24;100.00;95316.25;5113962;28;1028;-60
2023/12/15 06:53:57;;;;;;;;;;;;;;;7.02;100.00;95319.16;5113743;28;1906;-60
2023/12/15 06:56:23;;;;;;;;;;;;;;;7.04;100.00;95314.53;5114109;28;1040;-60
2023/12/15 06:58:49;;;;;;;;;;;;;;;7.19;100.00;95305.19;5113795;28;1017;-60
2023/12/15 07:01:15;;;;;;;;;;;;;;;7.35;100.00;95323.28;5113772;28;1033;-58
2023/12/15 07:03:40;;;;;;;;;;;;;;;7.38;100.00;95322.16;5113792;28;991;-60
2023/12/15 07:06:06;;;;;;;;;;;;;;;7.32;100.00;95325.38;5114098;28;1002;-58
2023/12/15 07:08:32;;;;;;;;;;;;;;;7.40;100.00;95330.88;5113692;28;1172;-60
2023/12/15 07:10:59;;;;;;;;;;;;;;;7.46;99.74;95348.94;5113979;28;1047;-60
2023/12/15 07:13:25;;;;;;;;;;;;;;;7.38;99.11;95365.59;5113694;28;1222;-60
2023/12/15 07:15:52;;;;;;;;;;;;;;;7.36;99.96;95364.00;5113866;28;1909;-60
2023/12/15 07:18:18;;;;;;;;;;;;;;;7.35;100.00;95357.88;5113916;28;1066;-60
2023/12/15 07:20:44;;;;;;;;;;;;;;;7.29;99.13;95339.78;5113995;28;983;-60
2023/12/15 07:23:10;;;;;;;;;;;;;;;7.47;99.10;95358.56;5113837;28;996;-59
2023/12/15 07:25:39;;;;;;;;;;;;;;;7.57;99.03;95362.13;5113907;28;1051;-60
2023/12/15 07:28:05;;;;;;;;;;;;;;;7.54;99.98;95366.88;5113540;28;1115;-59
2023/12/15 07:30:31;;;;;;;;;;;;;;;7.52;100.00;95364.34;5115199;28;1071;-59
2023/12/15 07:32:57;;;;;;;;;;;;;;;7.67;98.43;95375.44;5117868;28;984;-59
2023/12/15 07:35:23;;;;;;;;;;;;;;;7.63;97.53;95374.88;5117551;28;1905;-59
2023/12/15 07:37:51;;;;;;;;;;;;;;;7.79;97.41;95384.97;5117620;28;1028;-57
2023/12/15 07:40:17;;;;;;;;;;;;;;;7.87;95.39;95392.25;5117918;28;999;-57
2023/12/15 07:42:43;;;;;;;;;;;;;;;7.71;96.02;95387.47;5117535;28;1029;-57
2023/12/15 07:45:09;;;;;;;;;;;;;;;7.71;96.14;95387.47;5117718;28;1004;-57
2023/12/15 07:47:35;;;;;;;;;;;;;;;7.74;95.75;95403.19;5117785;28;956;-57
2023/12/15 07:50:01;;;;;;;;;;;;;;;7.71;95.40;95407.94;5117460;28;1119;-57
2023/12/15 07:52:27;;;;;;;;;;;;;;;7.73;94.57;95406.81;5117352;28;944;-57
2023/12/15 07:54:53;;;;;;;;;;;;;;;7.76;94.91;95406.56;5117129;28;1980;-57
2023/12/15 07:57:19;;;;;;;;;;;;;;;7.71;95.03;95397.31;5117245;28;1104;-57
2023/12/15 07:59:46;;;;;;;;;;;;;;;7.65;95.80;95398.69;5117666;28;1032;-57
2023/12/15 08:02:12;;;;;;;;;;;;;;;7.72;94.90;95410.47;5117327;28;984;-57
2023/12/15 08:04:38;;;;;;;;;;;;;;;7.74;95.18;95407.66;5117164;28;1071;-57
2023/12/15 08:07:04;;;;;;;;;;;;;;;7.78;94.79;95403.75;5117089;28;1110;-57
2023/12/15 08:09:30;;;;;;;;;;;;;;;7.75;95.21;95410.19;5117360;28;976;-57
2023/12/15 08:11:56;;;;;;;;;;;;;;;7.73;96.00;95411.31;5117260;28;995;-57
2023/12/15 08:14:24;;;;;;;;;;;;;;;7.72;96.44;95409.59;5116766;28;1917;-57
2023/12/15 08:16:50;;;;;;;;;;;;;;;7.71;95.66;95413.28;5116985;28;1028;-57
2023/12/15 08:19:16;;;;;;;;;;;;;;;7.65;96.17;95425.31;5116972;28;1042;-58
2023/12/15 08:21:42;;;;;;;;;;;;;;;7.80;94.71;95423.09;5117367;28;1039;-58
2023/12/15 08:24:08;;;;;;;;;;;;;;;7.93;94.12;95418.34;5117089;28;1051;-59
2023/12/15 08:26:34;;;;;;;;;;;;;;;7.96;93.84;95423.38;5116707;28;1096;-59
2023/12/15 08:29:00;;;;;;;;;;;;;;;7.91;95.47;95427.44;5116775;28;1115;-59
2023/12/15 08:31:26;;;;;;;;;;;;;;;8.02;92.99;95429.97;5116660;28;1095;-59
2023/12/15 08:33:52;;;;;;;;;;;;;;;7.98;94.75;95426.75;5116661;28;1990;-59
2023/12/15 08:36:18;;;;;;;;;;;;;;;8.04;94.08;95438.66;5115322;28;1009;-58
2023/12/15 08:38:44;;;;;;;;;;;;;;;8.07;94.12;95438.41;5116573;28;1024;-59
2023/12/15 08:41:10;;;;;;;;;;;;;;;8.17;95.03;95439.22;5116411;28;1180;-57
2023/12/15 08:43:36;;;;;;;;;;;;;;;8.25;92.63;95438.53;5116030;28;1007;-58
2023/12/15 08:46:03;;;;;;;;;;;;;;;8.25;92.34;95440.38;5116707;28;977;-59
2023/12/15 08:48:29;;;;;;;;;;;;;;;8.14;93.52;95438.69;5116319;28;1060;-59
2023/12/15 08:50:55;;;;;;;;;;;;;;;8.07;94.04;95440.22;5116264;28;961;-59
2023/12/15 08:53:21;;;;;;;;;;;;;;;8.13;93.20;95442.31;5116474;28;1054;-59
2023/12/15 08:55:47;;;;;;;;;;;;;;;8.22;92.87;95441.50;5116101;28;1910;-59
2023/12/15 08:58:14;;;;;;;;;;;;;;;8.28;91.90;95440.94;5116255;28;1031;-59
2023/12/15 09:00:40;;;;;;;;;;;;;;;8.23;93.21;95450.31;5116149;28;1036;-58
2023/12/15 09:03:06;;;;;;;;;;;;;;;8.20;92.60;95440.78;5116465;28;998;-59
2023/12/15 09:05:32;;;;;;;;;;;;;;;8.26;92.15;95442.06;5115900;28;1051;-60
2023/12/15 09:07:59;;;;;;;;;;;;;;;8.24;92.57;95430.72;5116008;28;1028;-60
2023/12/15 09:10:25;;;;;;;;;;;;;;;8.18;92.75;95437.44;5116081;28;977;-60
2023/12/15 09:12:51;;;;;;;;;;;;;;;8.16;93.70;95436.75;5115937;28;1207;-61
2023/12/15 09:15:18;;;;;;;;;;;;;;;8.18;93.56;95421.44;5114793;28;1914;-61
2023/12/15 09:17:44;;;;;;;;;;;;;;;8.24;93.26;95426.22;5115816;27;1119;-61
2023/12/15 09:20:11;;;;;;;;;;;;;;;8.19;94.07;95423.13;5115711;28;1107;-60
2023/12/15 09:22:38;;;;;;;;;;;;;;;8.20;93.02;95411.50;5115990;28;984;-61
2023/12/15 09:25:04;;;;;;;;;;;;;;;8.16;93.36;95412.75;5114419;28;1134;-59
2023/12/15 09:27:30;;;;;;;;;;;;;;;8.09;93.59;95411.63;5114661;28;1051;-59
2023/12/15 09:29:57;;;;;;;;;;;;;;;8.17;94.24;95406.44;5115577;28;1020;-61
2023/12/15 09:32:23;;;;;;;;;;;;;;;8.22;93.72;95401.53;5115463;28;1006;-61
2023/12/15 09:34:49;;;;;;;;;;;;;;;8.27;92.45;95393.97;5115282;28;1910;-61
2023/12/15 09:37:15;;;;;;;;;;;;;;;8.27;91.64;95404.63;5115620;28;1051;-60
2023/12/15 09:39:41;;;;;;;;;;;;;;;8.19;92.34;95407.13;5115605;28;1047;-61
2023/12/15 09:42:07;;;;;;;;;;;;;;;8.23;92.43;95403.22;5115593;28;999;-61
2023/12/15 09:44:33;;;;;;;;;;;;;;;8.16;93.13;95405.59;5115477;28;1000;-61
2023/12/15 09:46:59;;;;;;;;;;;;;;;8.28;92.50;95410.78;5115206;28;1087;-61
2023/12/15 09:49:25;;;;;;;;;;;;;;;8.12;93.49;95409.53;5113934;28;968;-61
2023/12/15 09:51:51;;;;;;;;;;;;;;;8.19;93.61;95409.81;5115320;28;988;-62
2023/12/15 09:54:18;;;;;;;;;;;;;;;8.30;92.90;95416.81;5114015;28;1910;-61
2023/12/15 09:56:46;;;;;;;;;;;;;;;8.25;94.23;95411.91;5115034;28;1067;-61
2023/12/15 09:59:13;;;;;;;;;;;;;;;8.24;94.53;95418.22;5113823;28;1028;-60
2023/12/15 10:01:39;;;;;;;;;;;;;;;8.30;93.96;95414.16;5114989;28;1024;-61
2023/12/15 10:04:05;;;;;;;;;;;;;;;8.36;93.98;95425.06;5113693;28;1044;-61
2023/12/15 10:06:35;;;;;;;;;;;;;;;8.34;94.19;95419.06;5115083;28;1063;-60
2023/12/15 10:09:01;;;;;;;;;;;;;;;8.34;94.97;95415.56;5115110;28;1051;-61
2023/12/15 10:11:30;;;;;;;;;;;;;;;8.34;93.71;95421.72;5115039;28;984;-61
2023/12/15 10:13:55;;;;;;;;;;;;;;;8.36;94.20;95419.75;5114580;27;1902;-61
2023/12/15 10:16:26;;;;;;;;;;;;;;;8.47;93.46;95421.47;5114561;28;1091;-61
2023/12/15 10:18:52;;;;;;;;;;;;;;;8.42;92.20;95423.69;5114603;28;1028;-61
2023/12/15 10:21:18;;;;;;;;;;;;;;;8.35;93.84;95428.75;5114525;28;1868;-61
2023/12/15 10:23:44;;;;;;;;;;;;;;;8.38;93.86;95427.59;5114430;28;1013;-61
2023/12/15 10:26:10;;;;;;;;;;;;;;;8.44;92.73;95426.22;5114413;28;1243;-61
2023/12/15 10:28:38;;;;;;;;;;;;;;;8.39;93.68;95429.31;5114378;28;1025;-61
2023/12/15 10:31:08;;;;;;;;;;;;;;;8.34;94.76;95431.53;5114467;28;1023;-61
2023/12/15 10:33:34;;;;;;;;;;;;;;;8.35;94.51;95431.41;5114451;28;1007;-61
2023/12/15 10:36:01;;;;;;;;;;;;;;;8.35;94.99;95436.72;5114395;28;1992;-60
2023/12/15 10:38:30;;;;;;;;;;;;;;;8.37;95.43;95441.94;5114427;28;960;-58
2023/12/15 10:40:57;;;;;;;;;;;;;;;8.36;96.06;95429.56;5114166;28;943;-57
2023/12/15 10:43:24;;;;;;;;;;;;;;;8.33;96.01;95438.69;5114206;28;1028;-59
2023/12/15 10:45:53;;;;;;;;;;;;;;;8.29;96.59;95445.28;5114084;27;1108;-59
2023/12/15 10:48:19;;;;;;;;;;;;;;;8.28;97.65;95443.59;5114022;28;1093;-59
2023/12/15 10:50:48;;;;;;;;;;;;;;;8.31;96.55;95445.13;5114273;28;1658;-59
2023/12/15 10:53:15;;;;;;;;;;;;;;;8.24;96.23;95447.53;5114297;28;1055;-59
2023/12/15 10:55:43;;;;;;;;;;;;;;;8.29;95.90;95447.97;5113968;28;1996;-59
2023/12/15 10:58:10;;;;;;;;;;;;;;;8.31;94.91;95459.31;5114044;28;1051;-58
2023/12/15 11:00:36;;;;;;;;;;;;;;;8.26;96.28;95466.88;5113943;28;1043;-59
2023/12/15 11:03:03;;;;;;;;;;;;;;;8.25;96.23;95459.84;5113980;28;1090;-59
2023/12/15 11:05:32;;;;;;;;;;;;;;;8.18;96.37;95464.91;5113454;28;1064;-59
2023/12/15 11:07:59;;;;;;;;;;;;;;;8.16;95.84;95461.53;5113788;28;1043;-59
2023/12/15 11:10:25;;;;;;;;;;;;;;;8.11;95.53;95471.75;5113759;28;1620;-59
2023/12/15 11:17:19;;;;;;;;;;;;;;;7.98;96.46;95479.16;5110755;28;1258;-58
2023/12/15 11:19:45;;;;;;;;;;;;;;;7.99;96.66;95479.03;5112756;28;992;-59
2023/12/15 11:22:11;;;;;;;;;;;;;;;7.91;97.27;95473.56;5112705;28;976;-59
2023/12/15 11:24:38;;;;;;;;;;;;;;;7.99;96.08;95476.38;5113653;28;1020;-59
2023/12/15 11:27:04;;;;;;;;;;;;;;;7.95;96.53;95469.63;5113660;28;936;-59
2023/12/15 11:29:35;;;;;;;;;;;;;;;8.00;95.20;95467.38;5112651;28;1117;-59
2023/12/15 11:32:19;;;;;;;;;;;;;;;7.95;96.18;95474.13;5113541;28;980;-59
2023/12/15 11:34:46;;;;;;;;;;;;;;;7.88;97.09;95463.16;5113638;28;1906;-58
2023/12/15 11:37:14;;;;;;;;;;;;;;;7.81;98.21;95470.00;5113638;28;1039;-58
2023/12/15 11:39:40;;;;;;;;;;;;;;;7.87;97.96;95480.13;5113776;28;1051;-58
2023/12/15 11:42:07;;;;;;;;;;;;;;;7.93;96.49;95479.59;5113537;28;972;-58
2023/12/15 11:44:33;;;;;;;;;;;;;;;7.86;97.37;95475.78;5113639;28;980;-58
2023/12/15 11:46:59;;;;;;;;;;;;;;;7.78;97.08;95478.28;5113694;28;1049;-58
2023/12/15 11:49:25;;;;;;;;;;;;;;;7.86;96.74;95474.94;5113219;28;1040;-59
2023/12/15 11:51:51;;;;;;;;;;;;;;;7.82;97.23;95480.53;5112408;28;980;-58
2023/12/15 11:54:17;;;;;;;;;;;;;;;7.89;96.32;95475.53;5113215;28;1909;-59
2023/12/15 11:56:44;;;;;;;;;;;;;;;7.73;97.90;95475.19;5113393;28;1052;-58
2023/12/15 11:59:10;;;;;;;;;;;;;;;7.67;97.59;95478.41;5113167;28;1095;-58
2023/12/15 12:01:38;;;;;;;;;;;;;;;7.70;97.18;95475.44;5113483;28;1050;-59
2023/12/15 12:04:05;;;;;;;;;;;;;;;7.67;96.66;95481.06;5113211;28;1067;-59
2023/12/15 12:06:32;;;;;;;;;;;;;;;7.58;98.40;95488.84;5113109;28;1036;-59
2023/12/15 12:08:58;;;;;;;;;;;;;;;7.69;97.28;95487.09;5113312;28;960;-58
2023/12/15 12:11:24;;;;;;;;;;;;;;;7.59;97.82;95489.72;5113166;28;1071;-59
2023/12/15 12:13:56;;;;;;;;;;;;;;;7.58;98.30;95490.69;5113048;28;1979;-58
2023/12/15 12:16:22;;;;;;;;;;;;;;;7.54;98.05;95490.09;5113061;28;1119;-59
2023/12/15 12:18:49;;;;;;;;;;;;;;;7.61;97.34;95499.25;5116327;28;1080;-59
2023/12/15 12:21:16;;;;;;;;;;;;;;;7.60;97.58;95502.88;5116953;28;976;-59
2023/12/15 12:23:42;;;;;;;;;;;;;;;7.60;97.69;95507.34;5116882;28;976;-60
2023/12/15 12:26:08;;;;;;;;;;;;;;;7.57;98.53;95492.50;5116824;28;964;-60
2023/12/15 12:28:38;;;;;;;;;;;;;;;7.55;97.95;95506.91;5116734;28;947;-60
2023/12/15 12:31:04;;;;;;;;;;;;;;;7.52;98.50;95494.72;5116984;28;992;-60
2023/12/15 12:33:30;;;;;;;;;;;;;;;7.56;97.44;95498.78;5116574;28;1032;-60
2023/12/15 12:35:57;;;;;;;;;;;;;;;7.52;97.14;95491.22;5116712;28;1988;-61
2023/12/15 12:38:23;;;;;;;;;;;;;;;7.63;95.18;95491.13;5116795;28;1052;-60
2023/12/15 12:40:48;;;;;;;;;;;;;;;7.56;94.55;95490.81;5116492;28;1084;-61
2023/12/15 12:43:15;;;;;;;;;;;;;;;7.45;96.14;95492.72;5116726;28;964;-61
2023/12/15 12:45:42;;;;;;;;;;;;;;;7.36;96.01;95489.03;5116699;28;1044;-60
2023/12/15 12:48:08;;;;;;;;;;;;;;;7.43;95.61;95482.22;5116363;28;1047;-61
2023/12/15 12:50:34;;;;;;;;;;;;;;;7.36;95.96;95494.34;5116554;28;1051;-61
2023/12/15 12:53:00;;;;;;;;;;;;;;;7.33;95.85;95498.13;5116602;28;1043;-60
2023/12/15 12:55:28;;;;;;;;;;;;;;;7.17;97.45;95513.72;5115986;28;1905;-60
2023/12/15 12:57:53;;;;;;;;;;;;;;;7.10;98.26;95521.41;5116545;28;969;-61
2023/12/15 13:00:19;;;;;;;;;;;;;;;7.14;97.79;95522.81;5116360;28;1055;-60
2023/12/15 13:02:46;;;;;;;;;;;;;;;7.20;96.90;95526.75;5116169;28;1099;-61
2023/12/15 13:05:12;;;;;;;;;;;;;;;7.32;95.13;95519.53;5115909;28;1103;-60